Time;durP1;ratioP1;P1;durP2;ratioP2;P2;SDS_P1;SDS_P2;PMS_P1;PMS_P2;Temp;Humidity;BMP_temperature;BMP_pressure;BME280_temperature;BME280_humidity;BME280_pressure;Samples;Min_cycle;Max_cycle;Signal;HPM_P1;HPM_P2
2021/11/20 00:00:41;;;;;;;13.35;7.28;;;2.20;99.90;;;;;;5017061;28;20037;-71
2021/11/20 00:03:09;;;;;;;10.35;6.95;;;2.20;99.90;;;;;;5016865;28;20046;-71
2021/11/20 00:05:44;;;;;;;10.70;6.80;;;2.10;99.90;;;;;;5016528;28;20029;-71
2021/11/20 00:08:10;;;;;;;12.18;8.00;;;2.10;99.90;;;;;;5016990;28;20057;-71
2021/11/20 00:10:40;;;;;;;12.40;7.70;;;2.00;99.90;;;;;;5016615;28;20615;-71
2021/11/20 00:13:08;;;;;;;9.77;7.38;;;2.10;99.90;;;;;;5016652;28;20052;-71
2021/11/20 00:15:39;;;;;;;10.48;6.60;;;2.00;99.90;;;;;;5016808;28;20041;-71
2021/11/20 00:18:06;;;;;;;12.00;7.40;;;2.10;99.90;;;;;;5016685;28;20037;-71
2021/11/20 00:20:45;;;;;;;14.05;8.07;;;2.10;99.90;;;;;;5016424;28;20037;-71
2021/11/20 00:23:11;;;;;;;12.52;7.93;;;2.00;99.90;;;;;;5016043;28;20065;-71
2021/11/20 00:25:47;;;;;;;11.55;6.47;;;2.10;99.90;;;;;;5016232;28;20044;-71
2021/11/20 00:28:19;;;;;;;14.35;8.07;;;2.00;99.90;;;;;;5016555;28;20042;-71
2021/11/20 00:30:54;;;;;;;12.00;8.00;;;2.00;99.90;;;;;;5016390;28;20038;-71
2021/11/20 00:33:23;;;;;;;13.10;8.32;;;2.00;99.90;;;;;;5016647;28;20053;-71
2021/11/20 00:35:53;;;;;;;13.80;6.97;;;2.00;99.90;;;;;;5016123;28;20046;-71
2021/11/20 00:38:19;;;;;;;13.10;8.48;;;2.00;99.90;;;;;;5016676;28;20041;-71
2021/11/20 00:40:55;;;;;;;11.40;7.80;;;1.90;99.90;;;;;;5016033;28;20048;-71
2021/11/20 00:43:22;;;;;;;10.85;7.70;;;1.80;99.90;;;;;;5016334;28;20072;-71
2021/11/20 00:45:48;;;;;;;11.63;8.02;;;1.90;99.90;;;;;;5016105;28;20120;-71
2021/11/20 00:48:16;;;;;;;14.38;7.47;;;1.90;99.90;;;;;;5016173;28;20133;-71
2021/11/20 00:50:45;;;;;;;14.48;8.15;;;1.90;99.90;;;;;;5015658;28;20563;-71
2021/11/20 00:53:13;;;;;;;10.50;7.18;;;1.80;99.90;;;;;;5015517;28;20061;-71
2021/11/20 00:55:38;;;;;;;12.73;7.50;;;1.80;99.90;;;;;;5015438;28;20041;-71
2021/11/20 00:58:05;;;;;;;13.27;7.55;;;1.70;99.90;;;;;;5015760;28;20048;-71
2021/11/20 01:00:37;;;;;;;11.25;7.20;;;1.70;99.90;;;;;;5015355;28;20092;-71
2021/11/20 01:03:04;;;;;;;11.98;8.18;;;1.80;99.90;;;;;;5016064;28;20041;-71
2021/11/20 01:05:31;;;;;;;12.02;8.63;;;1.80;99.90;;;;;;5015200;28;20037;-71
2021/11/20 01:07:57;;;;;;;13.93;8.55;;;1.70;99.90;;;;;;5015857;28;20049;-71
2021/11/20 01:10:26;;;;;;;9.75;7.20;;;1.70;99.90;;;;;;5015577;28;20030;-71
2021/11/20 01:12:52;;;;;;;10.52;7.43;;;1.80;99.90;;;;;;5015998;28;20176;-71
2021/11/20 01:15:26;;;;;;;13.32;7.90;;;1.80;99.90;;;;;;5015427;28;20048;-71
2021/11/20 01:17:52;;;;;;;13.43;7.78;;;1.90;99.90;;;;;;5015714;28;20107;-71
2021/11/20 01:20:19;;;;;;;13.10;8.20;;;1.80;99.90;;;;;;5014914;28;20177;-71
2021/11/20 01:22:45;;;;;;;12.13;8.15;;;1.70;99.90;;;;;;5015404;28;20045;-71
2021/11/20 01:25:12;;;;;;;11.70;7.88;;;1.70;99.90;;;;;;5015300;28;20041;-71
2021/11/20 01:27:38;;;;;;;13.27;7.70;;;1.70;99.90;;;;;;5015425;28;20060;-71
2021/11/20 01:30:07;;;;;;;15.27;8.20;;;1.70;99.90;;;;;;5015368;28;20034;-71
2021/11/20 01:32:33;;;;;;;13.02;8.02;;;1.70;99.90;;;;;;5014915;28;20505;-71
2021/11/20 01:34:59;;;;;;;12.48;7.80;;;1.60;99.90;;;;;;5014802;28;20069;-71
2021/11/20 01:37:25;;;;;;;13.27;8.80;;;1.60;99.90;;;;;;5015273;28;20045;-71
2021/11/20 01:39:51;;;;;;;14.10;7.78;;;1.60;99.90;;;;;;5015073;28;20041;-71
2021/11/20 01:42:31;;;;;;;15.57;8.27;;;1.60;99.90;;;;;;5015520;28;20042;-71
2021/11/20 01:45:01;;;;;;;13.40;8.20;;;1.60;99.90;;;;;;5014851;28;20037;-71
2021/11/20 01:47:30;;;;;;;15.38;8.18;;;1.60;99.90;;;;;;5015084;28;20045;-71
2021/11/20 01:50:09;;;;;;;12.15;7.13;;;1.50;99.90;;;;;;5015189;28;20049;-71
2021/11/20 01:52:51;;;;;;;11.52;6.53;;;1.50;99.90;;;;;;5015203;28;20065;-71
2021/11/20 01:55:31;;;;;;;10.90;6.57;;;1.50;99.90;;;;;;5015272;28;20053;-71
2021/11/20 01:58:09;;;;;;;9.63;6.18;;;1.40;99.90;;;;;;5014824;28;20042;-71
2021/11/20 02:00:53;;;;;;;8.93;6.75;;;1.50;99.90;;;;;;5014864;28;20481;-71
2021/11/20 02:03:34;;;;;;;13.68;7.20;;;1.50;99.90;;;;;;5014896;28;20034;-71
2021/11/20 02:06:18;;;;;;;;;;;1.40;99.90;;;;;;5015312;28;20046;-71
2021/11/20 02:09:11;;;;;;;9.48;6.30;;;1.50;99.90;;;;;;5015607;28;19996;-71
2021/11/20 02:11:44;;;;;;;10.60;7.00;;;1.50;99.90;;;;;;5014713;28;20072;-71
2021/11/20 02:14:13;;;;;;;13.07;7.20;;;1.40;99.90;;;;;;5015138;28;20038;-71
2021/11/20 02:17:03;;;;;;;12.68;7.07;;;1.40;99.90;;;;;;5014516;28;20041;-71
2021/11/20 02:19:33;;;;;;;10.40;6.32;;;1.40;99.90;;;;;;5015232;28;20055;-71
2021/11/20 02:22:05;;;;;;;9.20;6.93;;;1.40;99.90;;;;;;5014947;28;20065;-71
2021/11/20 02:24:30;;;;;;;9.18;6.35;;;1.40;99.90;;;;;;5014538;28;20500;-71
2021/11/20 02:26:56;;;;;;;10.43;6.40;;;1.30;99.90;;;;;;5014756;28;20069;-71
2021/11/20 02:29:22;;;;;;;12.20;6.43;;;1.20;99.90;;;;;;5015051;28;20038;-71
2021/11/20 02:31:57;;;;;;;9.63;6.72;;;1.20;99.90;;;;;;5014618;28;20056;-71
2021/11/20 02:34:28;;;;;;;9.00;6.40;;;1.30;99.90;;;;;;5014420;28;20370;-71
2021/11/20 02:36:54;;;;;;;9.80;6.72;;;1.20;99.90;;;;;;5014790;28;20099;-71
2021/11/20 02:39:23;;;;;;;9.57;6.28;;;1.20;99.90;;;;;;5014749;28;20045;-71
2021/11/20 02:41:52;;;;;;;9.38;6.72;;;1.20;99.90;;;;;;5014825;28;20041;-71
2021/11/20 02:44:20;;;;;;;8.65;6.47;;;1.10;99.90;;;;;;5014663;28;20504;-71
2021/11/20 02:46:50;;;;;;;10.95;6.60;;;1.20;99.90;;;;;;5014339;28;20156;-71
2021/11/20 02:49:16;;;;;;;9.07;6.80;;;1.30;99.90;;;;;;5014701;28;20096;-71
2021/11/20 02:51:49;;;;;;;10.52;6.40;;;1.20;99.90;;;;;;5014771;28;20100;-71
2021/11/20 02:54:19;;;;;;;11.13;6.95;;;1.20;99.90;;;;;;5018242;28;20045;-71
2021/11/20 02:56:59;;;;;;;8.95;6.43;;;1.20;99.90;;;;;;5017382;28;20092;-71
2021/11/20 02:59:24;;;;;;;10.88;6.43;;;1.20;99.90;;;;;;5018063;28;20041;-71
2021/11/20 03:01:52;;;;;;;10.45;6.30;;;1.20;99.90;;;;;;5017731;28;20048;-71
2021/11/20 03:04:21;;;;;;;11.02;6.30;;;1.20;99.90;;;;;;5018140;28;20108;-71
2021/11/20 03:06:51;;;;;;;8.23;6.30;;;1.20;99.90;;;;;;5017722;28;20137;-71
2021/11/20 03:09:17;;;;;;;10.00;6.28;;;1.10;99.90;;;;;;5018008;28;20049;-71
2021/11/20 03:11:44;;;;;;;10.63;6.72;;;1.10;99.90;;;;;;5017437;28;20125;-71
2021/11/20 03:14:14;;;;;;;8.35;5.78;;;1.10;99.90;;;;;;5017665;28;20048;-71
2021/11/20 03:17:03;;;;;;;9.00;5.72;;;1.10;99.90;;;;;;5017359;28;20049;-71
2021/11/20 03:19:32;;;;;;;10.25;5.97;;;1.00;99.90;;;;;;5016650;28;20370;-71
2021/11/20 03:22:06;;;;;;;11.57;6.25;;;1.00;99.90;;;;;;5017810;28;20045;-71
2021/11/20 03:24:32;;;;;;;10.52;6.10;;;1.00;99.90;;;;;;5017700;28;20037;-71
2021/11/20 03:26:59;;;;;;;9.57;6.18;;;1.00;99.90;;;;;;5017395;28;20058;-71
2021/11/20 03:29:26;;;;;;;9.85;6.43;;;1.00;99.90;;;;;;5017062;28;20088;-71
2021/11/20 03:31:53;;;;;;;11.93;6.53;;;1.00;99.90;;;;;;5017662;28;20065;-71
2021/11/20 03:34:24;;;;;;;7.90;5.22;;;0.90;99.90;;;;;;5017659;28;20113;-71
2021/11/20 03:36:50;;;;;;;6.85;5.28;;;1.00;99.90;;;;;;5016845;28;20048;-71
2021/11/20 03:39:17;;;;;;;8.48;5.78;;;1.00;99.90;;;;;;5017155;28;20152;-71
2021/11/20 03:41:43;;;;;;;10.02;6.40;;;1.00;99.90;;;;;;5017156;28;20069;-71
2021/11/20 03:44:10;;;;;;;9.85;6.47;;;0.90;99.90;;;;;;5017504;28;20037;-71
2021/11/20 03:46:38;;;;;;;11.18;6.57;;;0.90;99.90;;;;;;5016841;28;20059;-71
2021/11/20 03:49:04;;;;;;;7.30;5.00;;;0.90;99.90;;;;;;5016643;28;20505;-71
2021/11/20 03:51:31;;;;;;;9.40;5.75;;;0.90;99.90;;;;;;5016702;28;20045;-71
2021/11/20 03:53:57;;;;;;;9.45;6.15;;;0.90;99.90;;;;;;5016914;28;20552;-71
2021/11/20 03:56:23;;;;;;;10.55;6.15;;;0.90;99.90;;;;;;5016898;28;20049;-71
2021/11/20 03:58:49;;;;;;;9.07;5.53;;;0.90;99.90;;;;;;5017146;28;20077;-71
2021/11/20 04:01:18;;;;;;;8.57;5.68;;;0.90;99.90;;;;;;5016738;28;20089;-71
2021/11/20 04:03:45;;;;;;;9.32;6.07;;;0.90;99.90;;;;;;5015356;28;20038;-71
2021/11/20 04:06:17;;;;;;;11.63;7.07;;;0.90;99.90;;;;;;5016673;28;20069;-71
2021/11/20 04:08:46;;;;;;;9.50;5.88;;;0.80;99.90;;;;;;5016942;28;20048;-71
2021/11/20 04:11:13;;;;;;;9.93;6.88;;;0.80;99.90;;;;;;5016390;28;20092;-71
2021/11/20 04:13:41;;;;;;;10.25;6.95;;;0.90;99.90;;;;;;5016293;28;20037;-71
2021/11/20 04:16:09;;;;;;;14.00;7.18;;;0.80;99.90;;;;;;5016490;28;20038;-71
2021/11/20 04:18:35;;;;;;;10.90;6.85;;;0.70;99.90;;;;;;5016631;28;20045;-71
2021/11/20 04:21:02;;;;;;;11.48;7.10;;;0.60;99.90;;;;;;5017187;28;20108;-71
2021/11/20 04:23:28;;;;;;;9.68;6.30;;;0.70;99.90;;;;;;5016085;28;20566;-71
2021/11/20 04:25:54;;;;;;;13.00;6.80;;;0.70;99.90;;;;;;5016552;28;20120;-71
2021/11/20 04:28:20;;;;;;;11.18;6.18;;;0.70;99.90;;;;;;5016603;28;20056;-71
2021/11/20 04:30:47;;;;;;;9.98;6.45;;;0.70;99.90;;;;;;5015950;28;20033;-71
2021/11/20 04:33:13;;;;;;;10.52;6.85;;;0.70;99.90;;;;;;5016459;28;20038;-71
2021/11/20 04:35:40;;;;;;;12.30;6.75;;;0.60;99.90;;;;;;5015861;28;20045;-71
2021/11/20 04:38:06;;;;;;;11.48;6.40;;;0.60;99.90;;;;;;5016659;28;20034;-71
2021/11/20 04:40:33;;;;;;;9.90;6.97;;;0.60;99.90;;;;;;5016115;28;20121;-71
2021/11/20 04:42:59;;;;;;;12.38;6.90;;;0.60;99.90;;;;;;5016553;28;20045;-71
2021/11/20 04:45:27;;;;;;;10.95;6.40;;;0.60;99.90;;;;;;5015719;28;20038;-71
2021/11/20 04:47:54;;;;;;;8.50;5.20;;;0.70;99.90;;;;;;5015764;28;20052;-71
2021/11/20 04:50:22;;;;;;;7.72;5.68;;;0.70;99.90;;;;;;5016156;28;20145;-71
2021/11/20 04:52:48;;;;;;;8.02;5.35;;;0.70;99.90;;;;;;5016105;28;20038;-71
2021/11/20 04:55:15;;;;;;;7.97;5.05;;;0.60;99.90;;;;;;5016068;28;20150;-71
2021/11/20 04:57:42;;;;;;;7.60;5.22;;;0.60;99.90;;;;;;5016301;28;20125;-71
2021/11/20 05:00:14;;;;;;;8.02;5.90;;;0.60;99.90;;;;;;5015927;28;20050;-71
2021/11/20 05:02:40;;;;;;;7.32;5.47;;;0.60;99.90;;;;;;5016072;28;20034;-71
2021/11/20 05:05:06;;;;;;;9.40;5.80;;;0.60;99.90;;;;;;5015618;28;20038;-71
2021/11/20 05:07:32;;;;;;;11.43;5.75;;;0.50;99.90;;;;;;5015827;28;20048;-71
2021/11/20 05:09:59;;;;;;;8.55;5.95;;;0.60;99.90;;;;;;5015704;28;20080;-71
2021/11/20 05:12:25;;;;;;;9.20;6.05;;;0.60;99.90;;;;;;5015685;28;20030;-71
2021/11/20 05:14:51;;;;;;;7.72;5.07;;;0.60;99.90;;;;;;5015388;28;20096;-71
2021/11/20 05:17:17;;;;;;;9.57;6.22;;;0.60;99.90;;;;;;5015288;28;20050;-71
2021/11/20 05:19:43;;;;;;;7.25;5.35;;;0.60;99.90;;;;;;5015992;28;20049;-71
2021/11/20 05:22:09;;;;;;;9.98;5.30;;;0.50;99.90;;;;;;5016166;28;20038;-71
2021/11/20 05:24:35;;;;;;;6.55;4.57;;;0.60;99.90;;;;;;5015579;28;20037;-71
2021/11/20 05:27:02;;;;;;;5.95;4.45;;;0.50;99.90;;;;;;5015474;28;20061;-71
2021/11/20 05:31:55;;;;;;;11.00;5.85;;;0.60;99.90;;;;;;5015335;28;20096;-71
2021/11/20 05:34:22;;;;;;;8.45;5.43;;;0.50;99.90;;;;;;5015450;28;20042;-71
2021/11/20 05:36:48;;;;;;;9.60;6.03;;;0.60;99.90;;;;;;5015111;28;20045;-71
2021/11/20 05:39:14;;;;;;;9.13;5.63;;;0.60;99.90;;;;;;5015508;28;20068;-71
2021/11/20 05:41:40;;;;;;;10.07;6.30;;;0.50;99.90;;;;;;5015064;28;20037;-71
2021/11/20 05:44:07;;;;;;;7.57;4.95;;;0.40;99.90;;;;;;5014626;28;20061;-71
2021/11/20 05:46:33;;;;;;;7.47;4.90;;;0.50;99.90;;;;;;5014735;28;20392;-71
2021/11/20 05:48:59;;;;;;;8.60;5.53;;;0.40;99.90;;;;;;5015155;28;20041;-71
2021/11/20 05:51:25;;;;;;;12.15;7.25;;;0.50;99.90;;;;;;5014954;28;20083;-71
2021/11/20 05:53:51;;;;;;;8.90;6.20;;;0.40;99.90;;;;;;5014922;28;20120;-71
2021/11/20 05:56:18;;;;;;;9.05;5.88;;;0.40;99.90;;;;;;5014701;28;20046;-71
2021/11/20 05:58:44;;;;;;;6.47;5.32;;;0.40;99.90;;;;;;5014870;28;20124;-71
2021/11/20 06:01:13;;;;;;;9.27;5.68;;;0.40;99.90;;;;;;5015082;28;20065;-71
2021/11/20 06:03:39;;;;;;;8.38;5.28;;;0.40;99.90;;;;;;5014230;28;20033;-71
2021/11/20 06:06:07;;;;;;;9.20;5.72;;;0.50;99.90;;;;;;5014626;28;20038;-71
2021/11/20 06:08:33;;;;;;;10.75;6.35;;;0.40;99.90;;;;;;5014711;28;20045;-71
2021/11/20 06:11:03;;;;;;;8.85;6.82;;;0.50;99.90;;;;;;5014979;28;20066;-71
2021/11/20 06:13:29;;;;;;;9.93;5.80;;;0.70;99.90;;;;;;5014607;28;20166;-71
2021/11/20 06:15:57;;;;;;;13.68;6.82;;;0.70;99.90;;;;;;5014678;28;20037;-71
2021/11/20 06:18:23;;;;;;;10.55;6.45;;;0.80;99.90;;;;;;5014523;28;20067;-71
2021/11/20 06:20:50;;;;;;;8.23;6.43;;;0.90;99.90;;;;;;5014580;28;20065;-71
2021/11/20 06:23:17;;;;;;;10.50;6.00;;;0.80;99.90;;;;;;5014584;28;20069;-71
2021/11/20 06:25:44;;;;;;;9.02;5.65;;;0.70;99.90;;;;;;5014396;28;20034;-71
2021/11/20 06:28:10;;;;;;;9.50;6.50;;;0.50;99.90;;;;;;5018076;28;20038;-71
2021/11/20 06:30:36;;;;;;;10.65;5.97;;;0.50;99.90;;;;;;5018213;28;20041;-71
2021/11/20 06:33:03;;;;;;;9.15;5.22;;;0.50;99.90;;;;;;5018006;28;20038;-71
2021/11/20 06:35:32;;;;;;;10.88;6.20;;;0.60;99.90;;;;;;5018374;28;20111;-71
2021/11/20 06:37:58;;;;;;;9.95;6.38;;;0.50;99.90;;;;;;5018659;28;20049;-71
2021/11/20 06:40:28;;;;;;;14.00;6.25;;;0.50;99.90;;;;;;5018334;28;20041;-71
2021/11/20 06:42:55;;;;;;;9.43;5.95;;;0.50;99.90;;;;;;5017990;28;20056;-71
2021/11/20 06:45:25;;;;;;;8.93;5.05;;;0.50;99.90;;;;;;5018044;28;20396;-71
2021/11/20 06:47:51;;;;;;;9.90;6.38;;;0.50;99.90;;;;;;5017755;28;20128;-71
2021/11/20 06:50:19;;;;;;;8.63;5.53;;;0.50;99.90;;;;;;5018260;28;20046;-71
2021/11/20 06:52:45;;;;;;;7.82;4.75;;;0.50;99.90;;;;;;5018694;28;20045;-71
2021/11/20 06:55:13;;;;;;;10.93;6.03;;;0.50;99.90;;;;;;5018345;28;20065;-71
2021/11/20 07:00:28;;;;;;;8.40;5.80;;;0.30;99.90;;;;;;5018404;28;20034;-71
2021/11/20 07:02:58;;;;;;;12.98;5.95;;;0.50;99.90;;;;;;5018623;28;20034;-71
2021/11/20 07:05:25;;;;;;;8.27;5.75;;;0.50;99.90;;;;;;5018084;28;20131;-71
2021/11/20 07:07:52;;;;;;;8.60;5.22;;;0.50;99.90;;;;;;5013870;28;20100;-71
2021/11/20 07:10:21;;;;;;;7.65;4.97;;;0.60;99.90;;;;;;5017613;28;20124;-70
2021/11/20 07:12:49;;;;;;;6.93;5.32;;;0.60;99.90;;;;;;5017832;28;20452;-70
2021/11/20 07:15:15;;;;;;;7.13;4.88;;;0.60;99.90;;;;;;5017995;28;20037;-71
2021/11/20 07:17:41;;;;;;;6.50;5.30;;;0.60;99.90;;;;;;5017480;28;20042;-71
2021/11/20 07:20:08;;;;;;;8.57;6.43;;;0.70;99.90;;;;;;5017539;28;20084;-71
2021/11/20 07:22:34;;;;;;;8.70;6.03;;;0.60;99.90;;;;;;5017651;28;20038;-71
2021/11/20 07:25:01;;;;;;;9.35;6.13;;;0.70;99.90;;;;;;5012226;28;20043;-71
2021/11/20 07:27:27;;;;;;;9.30;6.28;;;0.70;99.90;;;;;;4997797;28;20105;-71
2021/11/20 07:29:53;;;;;;;6.95;5.28;;;0.70;99.90;;;;;;4998064;28;20065;-71
2021/11/20 07:32:18;;;;;;;7.30;5.43;;;0.80;99.90;;;;;;4997811;28;20085;-71
2021/11/20 07:34:44;;;;;;;8.40;5.65;;;0.80;99.90;;;;;;4997711;28;20073;-71
2021/11/20 07:37:10;;;;;;;9.68;6.40;;;0.80;99.90;;;;;;5002818;28;20037;-71
2021/11/20 07:39:37;;;;;;;10.00;7.22;;;0.80;99.90;;;;;;5017019;28;20466;-71
2021/11/20 07:42:05;;;;;;;15.05;8.25;;;0.90;99.90;;;;;;5017452;28;20037;-71
2021/11/20 07:44:31;;;;;;;10.18;7.30;;;1.00;99.90;;;;;;5017573;28;20496;-71
2021/11/20 07:46:57;;;;;;;11.85;7.60;;;1.00;99.90;;;;;;5017224;28;20041;-71
2021/11/20 07:49:23;;;;;;;13.75;8.23;;;1.10;99.90;;;;;;5017016;28;20058;-71
2021/11/20 07:51:50;;;;;;;14.43;7.72;;;1.30;99.90;;;;;;5016161;28;20068;-71
2021/11/20 07:54:17;;;;;;;12.63;7.88;;;1.60;99.90;;;;;;5014988;28;20040;-71
2021/11/20 07:56:43;;;;;;;11.75;7.53;;;1.90;97.90;;;;;;5015553;28;20572;-71
2021/11/20 07:59:12;;;;;;;11.75;8.07;;;2.20;90.10;;;;;;5016154;28;20531;-71
2021/11/20 08:01:38;;;;;;;11.23;8.70;;;2.40;64.30;;;;;;5014615;28;20120;-71
2021/11/20 08:04:04;;;;;;;12.88;8.45;;;2.50;56.70;;;;;;5016788;28;20061;-71
2021/11/20 08:06:31;;;;;;;13.35;9.07;;;2.70;63.00;;;;;;5014628;28;20704;-71
2021/11/20 08:09:03;;;;;;;12.38;8.15;;;2.90;55.00;;;;;;5002911;28;20069;-71
2021/11/20 08:11:31;;;;;;;13.45;8.95;;;3.00;46.10;;;;;;4994946;28;20113;-71
2021/11/20 08:13:58;;;;;;;15.38;10.63;;;3.10;30.40;;;;;;5003168;28;20088;-71
2021/11/20 08:16:25;;;;;;;15.85;10.02;;;3.30;41.90;;;;;;5000939;28;20124;-71
2021/11/20 08:18:51;;;;;;;15.73;9.88;;;3.40;46.80;;;;;;4999645;28;20084;-72
2021/11/20 08:21:16;;;;;;;22.05;15.38;;;3.60;27.20;;;;;;5012424;28;20588;-71
2021/11/20 08:23:42;;;;;;;21.50;14.43;;;3.60;23.60;;;;;;5002298;28;20136;-72
2021/11/20 08:26:09;;;;;;;30.83;19.92;;;3.70;25.50;;;;;;5013997;28;20397;-70
2021/11/20 08:28:36;;;;;;;17.23;12.43;;;3.80;29.30;;;;;;5013453;28;20064;-72
2021/11/20 08:31:04;;;;;;;15.75;10.32;;;3.80;37.30;;;;;;5012019;28;20068;-73
2021/11/20 08:33:30;;;;;;;24.42;16.25;;;3.90;57.50;;;;;;5015254;28;20040;-72
2021/11/20 08:35:56;;;;;;;25.98;16.88;;;4.00;31.30;;;;;;5014290;28;20132;-72
2021/11/20 08:38:24;;;;;;;16.23;12.02;;;4.10;43.80;;;;;;5014914;28;20497;-72
2021/11/20 08:40:51;;;;;;;19.92;13.38;;;4.20;45.10;;;;;;5015567;28;20401;-72
2021/11/20 08:43:19;;;;;;;20.98;12.73;;;4.40;40.50;;;;;;5015753;28;20530;-72
2021/11/20 08:45:50;;;;;;;18.85;12.80;;;4.50;29.00;;;;;;5015905;28;20044;-72
2021/11/20 08:48:16;;;;;;;21.63;13.88;;;4.60;26.00;;;;;;5015062;28;20042;-72
2021/11/20 08:50:49;;;;;;;21.73;14.70;;;4.70;26.40;;;;;;5014773;28;20084;-72
2021/11/20 08:53:15;;;;;;;23.30;13.90;;;4.80;25.80;;;;;;5016247;28;20037;-72
2021/11/20 08:55:43;;;;;;;24.52;16.73;;;4.90;32.40;;;;;;5016036;28;20121;-72
2021/11/20 08:58:09;;;;;;;17.75;13.70;;;5.10;42.20;;;;;;5015649;28;20061;-73
2021/11/20 09:00:37;;;;;;;22.75;15.02;;;5.30;36.70;;;;;;5015980;28;20385;-74
2021/11/20 09:03:12;;;;;;;17.15;12.30;;;5.50;27.70;;;;;;5015162;28;20069;-73
2021/11/20 09:05:53;;;;;;;18.00;12.40;;;5.60;25.40;;;;;;5010749;28;20404;-72
2021/11/20 09:08:30;;;;;;;18.80;13.63;;;6.00;12.20;;;;;;5009474;28;20055;-73
2021/11/20 09:11:01;;;;;;;17.38;12.13;;;6.20;3.00;;;;;;5007627;28;20362;-75
2021/11/20 09:13:42;;;;;;;17.40;12.50;;;6.30;6.70;;;;;;5012878;28;20033;-75
2021/11/20 09:16:14;;;;;;;22.20;13.50;;;6.40;4.70;;;;;;5015763;28;20046;-74
2021/11/20 09:18:41;;;;;;;16.67;13.25;;;6.50;7.10;;;;;;5011020;28;20049;-75
2021/11/20 09:21:10;;;;;;;15.80;12.25;;;6.80;1.70;;;;;;5008409;28;20452;-76
2021/11/20 09:23:35;;;;;;;14.90;12.38;;;6.80;1.00;;;;;;5014803;28;20045;-74
2021/11/20 09:26:01;;;;;;;17.20;11.82;;;6.90;8.30;;;;;;5012852;28;20041;-74
2021/11/20 09:28:28;;;;;;;13.25;11.32;;;7.00;1.80;;;;;;5014539;28;20128;-73
2021/11/20 09:30:58;;;;;;;13.90;10.88;;;7.10;4.30;;;;;;5015141;28;20056;-74
2021/11/20 09:33:25;;;;;;;12.65;7.80;;;7.00;1.40;;;;;;5015285;28;20552;-72
2021/11/20 09:35:51;;;;;;;80.07;53.85;;;6.90;14.10;;;;;;5015171;28;20034;-72
2021/11/20 09:38:21;;;;;;;23.15;12.98;;;7.20;13.60;;;;;;5015431;28;20523;-72
2021/11/20 09:41:22;;;;;;;16.00;9.50;;;7.30;4.20;;;;;;5015440;28;20480;-72
2021/11/20 09:43:54;;;;;;;13.13;9.15;;;7.40;8.40;;;;;;4971050;28;20045;-72
2021/11/20 09:46:33;;;;;;;11.07;8.05;;;7.60;3.40;;;;;;5014822;28;20092;-72
2021/11/20 09:49:05;;;;;;;14.32;8.00;;;7.70;2.50;;;;;;5014890;28;20054;-73
2021/11/20 09:51:40;;;;;;;10.18;7.55;;;7.60;5.00;;;;;;5015344;28;20037;-72
2021/11/20 09:54:10;;;;;;;34.28;22.80;;;7.70;10.80;;;;;;5015487;28;20044;-72
2021/11/20 09:57:02;;;;;;;10.68;7.72;;;7.90;4.30;;;;;;5015317;28;20053;-73
2021/11/20 09:59:31;;;;;;;11.27;7.13;;;7.90;4.50;;;;;;5015093;28;20067;-72
2021/11/20 10:02:19;;;;;;;13.82;8.00;;;7.80;14.70;;;;;;5014881;28;20070;-72
2021/11/20 10:05:08;;;;;;;17.30;11.35;;;7.80;20.30;;;;;;5014845;28;20100;-72
2021/11/20 10:07:38;;;;;;;13.48;10.00;;;7.90;19.60;;;;;;5014813;28;20116;-72
2021/11/20 10:10:31;;;;;;;14.02;10.73;;;8.10;15.80;;;;;;5015300;28;20065;-72
2021/11/20 10:13:03;;;;;;;9.48;6.53;;;8.20;13.80;;;;;;5014845;28;20050;-73
2021/11/20 10:15:33;;;;;;;10.20;6.18;;;8.40;1.00;;;;;;5031411;28;20124;-72
2021/11/20 10:18:20;;;;;;;9.73;6.93;;;8.40;1.00;;;;;;5034496;28;20099;-72
2021/11/20 10:20:55;;;;;;;8.65;6.60;;;8.50;1.00;;;;;;5034602;28;20035;-72
2021/11/20 10:23:27;;;;;;;7.25;6.22;;;8.60;1.00;;;;;;5034600;28;20045;-73
2021/11/20 10:26:05;;;;;;;9.98;5.25;;;8.80;1.00;;;;;;5034498;28;20034;-72
2021/11/20 10:28:40;;;;;;;11.65;5.70;;;8.70;1.00;;;;;;5034384;28;20053;-73
2021/11/20 10:31:19;;;;;;;8.30;5.60;;;8.70;1.00;;;;;;5034508;28;20048;-72
2021/11/20 10:33:47;;;;;;;8.48;5.53;;;8.90;1.00;;;;;;5034172;28;20041;-73
2021/11/20 10:36:20;;;;;;;7.95;5.93;;;8.90;1.00;;;;;;5034523;28;20041;-72
2021/11/20 10:38:54;;;;;;;7.22;5.88;;;8.70;6.70;;;;;;5035068;28;20041;-73
2021/11/20 10:41:32;;;;;;;7.80;5.72;;;8.90;9.50;;;;;;5034197;28;20032;-73
2021/11/20 10:44:17;;;;;;;7.72;6.40;;;9.10;4.50;;;;;;5034709;28;20103;-73
2021/11/20 10:46:53;;;;;;;10.13;6.85;;;8.90;4.90;;;;;;5033828;28;20443;-73
2021/11/20 10:50:02;;;;;;;8.52;5.95;;;9.10;8.60;;;;;;5033652;28;20144;-72
2021/11/20 10:53:09;;;;;;;9.52;7.18;;;9.30;3.60;;;;;;5018315;28;20431;-72
2021/11/20 10:55:40;;;;;;;11.05;6.50;;;9.20;8.30;;;;;;5033781;28;20033;-72
2021/11/20 10:58:31;;;;;;;8.35;5.97;;;9.40;1.00;;;;;;5033898;28;20056;-72
2021/11/20 11:01:00;;;;;;;6.72;6.00;;;9.80;1.00;;;;;;5034020;28;20119;-72
2021/11/20 11:03:33;;;;;;;7.57;5.93;;;9.90;1.00;;;;;;5033527;28;20037;-72
2021/11/20 11:06:37;;;;;;;7.70;5.63;;;9.90;1.00;;;;;;5033863;28;20034;-72
2021/11/20 11:09:28;;;;;;;11.48;6.65;;;10.10;1.00;;;;;;5033387;28;20044;-73
2021/11/20 11:12:16;;;;;;;8.10;5.70;;;10.50;1.00;;;;;;5034434;28;20041;-72
2021/11/20 11:15:12;;;;;;;7.38;6.63;;;10.50;1.00;;;;;;5036964;28;20037;-70
2021/11/20 11:17:59;;;;;;;9.35;6.20;;;10.80;1.00;;;;;;5037284;28;20041;-71
2021/11/20 11:20:28;;;;;;;7.63;6.18;;;10.80;1.00;;;;;;5037302;28;20061;-72
2021/11/20 11:23:17;;;;;;;9.85;6.68;;;10.90;1.00;;;;;;5037536;28;20068;-72
2021/11/20 11:25:58;;;;;;;9.23;6.80;;;11.20;1.00;;;;;;5036234;28;20120;-72
2021/11/20 11:28:40;;;;;;;9.38;6.57;;;11.40;1.00;;;;;;5019674;28;20183;-72
2021/11/20 11:31:25;;;;;;;14.48;6.90;;;11.40;1.00;;;;;;5037862;28;20117;-72
2021/11/20 11:33:57;;;;;;;9.65;6.63;;;11.50;1.00;;;;;;5036572;28;20037;-72
2021/11/20 11:36:50;;;;;;;9.45;5.90;;;11.40;1.00;;;;;;5036959;28;20052;-72
2021/11/20 11:39:51;;;;;;;9.20;6.63;;;11.80;1.00;;;;;;5037074;28;20056;-72
2021/11/20 11:42:44;;;;;;;8.00;5.83;;;12.00;1.00;;;;;;5026096;28;20048;-72
2021/11/20 11:45:25;;;;;;;9.23;5.97;;;11.90;1.00;;;;;;5036937;28;20123;-72
2021/11/20 11:47:53;;;;;;;;;;;11.70;1.00;;;;;;5037175;28;20049;-72
2021/11/20 11:50:34;;;;;;;7.43;5.35;;;11.70;1.00;;;;;;5036982;28;20367;-72
2021/11/20 11:53:32;;;;;;;6.80;5.03;;;12.20;1.00;;;;;;5037959;28;20034;-72
2021/11/20 11:56:01;;;;;;;9.88;6.30;;;12.30;1.00;;;;;;5015790;28;20124;-72
2021/11/20 11:58:30;;;;;;;7.15;5.78;;;12.40;1.00;;;;;;5036441;28;20136;-72
2021/11/20 12:01:03;;;;;;;7.90;5.55;;;12.50;1.00;;;;;;5037285;28;20041;-72
2021/11/20 12:03:38;;;;;;;7.13;5.97;;;12.50;1.00;;;;;;5037383;28;20119;-72
2021/11/20 12:06:41;;;;;;;9.32;5.30;;;12.50;1.00;;;;;;5036472;28;20049;-72
2021/11/20 12:09:28;;;;;;;10.27;5.50;;;12.40;1.00;;;;;;5036812;28;20125;-72
2021/11/20 12:12:06;;;;;;;7.40;5.78;;;12.00;1.00;;;;;;5036151;28;20381;-72
2021/11/20 12:14:37;;;;;;;9.32;6.80;;;11.80;1.00;;;;;;5036564;28;20114;-72
2021/11/20 12:17:21;;;;;;;9.93;6.13;;;12.00;1.00;;;;;;5036496;28;20095;-72
2021/11/20 12:20:13;;;;;;;8.18;5.97;;;12.10;1.00;;;;;;5036320;28;20497;-72
2021/11/20 12:22:56;;;;;;;8.10;6.22;;;12.10;1.00;;;;;;5026019;28;20033;-72
2021/11/20 12:25:36;;;;;;;8.43;6.55;;;12.20;1.00;;;;;;5035013;28;20044;-72
2021/11/20 12:28:07;;;;;;;8.15;5.90;;;12.30;1.00;;;;;;5036102;28;20049;-72
2021/11/20 12:30:44;;;;;;;9.25;6.13;;;12.40;1.00;;;;;;5035822;28;20515;-72
2021/11/20 12:33:16;;;;;;;7.10;5.47;;;12.20;1.00;;;;;;5036093;28;20203;-72
2021/11/20 12:35:50;;;;;;;7.70;5.70;;;12.00;1.00;;;;;;5035979;28;20041;-72
2021/11/20 12:38:31;;;;;;;10.00;5.80;;;11.90;1.00;;;;;;5036519;28;20037;-72
2021/11/20 12:41:15;;;;;;;10.35;6.25;;;11.80;1.00;;;;;;5035973;28;20124;-72
2021/11/20 12:43:57;;;;;;;11.38;6.13;;;11.60;1.00;;;;;;5036058;28;20033;-72
2021/11/20 12:46:46;;;;;;;9.77;5.78;;;11.60;1.00;;;;;;5036061;28;20042;-72
2021/11/20 12:49:35;;;;;;;8.45;6.03;;;11.50;1.00;;;;;;5035228;28;20049;-72
2021/11/20 12:52:18;;;;;;;7.68;5.60;;;11.60;1.00;;;;;;5036264;28;20041;-72
2021/11/20 12:55:00;;;;;;;9.55;5.85;;;11.70;1.00;;;;;;5034997;28;20400;-72
2021/11/20 12:57:41;;;;;;;7.63;5.85;;;11.90;1.00;;;;;;5018717;28;20388;-72
2021/11/20 13:00:07;;;;;;;9.98;6.22;;;12.10;1.00;;;;;;5035996;28;20034;-72
2021/11/20 13:02:53;;;;;;;8.75;5.75;;;12.20;1.00;;;;;;5035648;28;20091;-72
2021/11/20 13:05:32;;;;;;;7.10;5.80;;;12.10;1.00;;;;;;5035833;28;20040;-72
2021/11/20 13:08:27;;;;;;;8.77;5.68;;;12.00;1.00;;;;;;5035293;28;20108;-72
2021/11/20 13:11:02;;;;;;;7.43;5.80;;;12.00;1.00;;;;;;5029705;28;20124;-72
2021/11/20 13:13:44;;;;;;;8.38;6.20;;;12.10;1.00;;;;;;5036394;28;20049;-72
2021/11/20 13:16:19;;;;;;;8.43;6.13;;;12.20;1.00;;;;;;5035347;28;20566;-72
2021/11/20 13:19:03;;;;;;;7.50;5.55;;;12.20;1.00;;;;;;5035441;28;20489;-72
2021/11/20 13:21:34;;;;;;;8.73;6.03;;;12.00;1.00;;;;;;5035271;28;20068;-72